Latest Weather Observations for Swan Island

IDT60801

Issued at 6:02 pm EST Monday 25 September 2017 (issued every 30 minutes, with the page automatically refreshed every 10 minutes)

About weather observations | Map of weather stations | Latest weather observations for TAS | Other Formats
Station Details ID: 092123 Name: SWAN ISLAND Lat: -40.73 Lon: 148.12 Height: 15.0 m
Data from the previous 72 hours. | See also: Recent months at Swan Island
Date/Time
EST
Temp
°C
App
Temp
°C
Dew
Point
°C
Rel
Hum
%
Delta-T
°C
Wind Press
QNH
hPa
Press
MSL
hPa
Rain since
9am
mm
Dir  Spd
km/h
Gust
km/h
Spd
kts
Gust
kts
25/06:00pm 10.9 2.1 5.4 69 2.5 W 41 54 22 29 1004.4 1004.4 0.0
25/05:30pm 11.4 2.7 6.1 70 2.5 W 41 56 22 30 1004.1 1004.1 0.0
25/05:00pm 11.6 2.5 5.9 68 2.7 W 43 56 23 30 1003.7 1003.7 0.0
25/04:36pm 11.8 3.1 6.1 68 2.7 W 41 59 22 32 1003.5 1003.5 0.0
25/04:30pm 11.8 3.5 6.3 69 2.6 W 39 52 21 28 1003.5 1003.5 0.0
25/04:01pm 12.3 4.4 6.1 66 2.9 W 37 57 20 31 1003.1 1003.1 0.0
25/04:00pm 12.4 4.5 6.2 66 2.9 W 37 52 20 28 1003.1 1003.1 0.0
25/03:36pm 12.7 4.9 6.7 67 2.9 W 37 57 20 31 1002.8 1002.8 0.0
25/03:30pm 12.7 4.5 6.7 67 2.9 W 39 56 21 30 1002.7 1002.7 0.0
25/03:15pm 12.7 5.2 6.5 66 3.0 W 35 59 19 32 1002.5 1002.5 0.0
25/03:00pm 12.7 4.4 6.3 65 3.1 W 39 54 21 29 1002.5 1002.5 0.0
25/02:31pm 12.6 5.1 6.2 65 3.0 W 35 57 19 31 1002.1 1002.1 0.0
25/02:30pm 12.6 5.1 6.2 65 3.0 W 35 52 19 28 1002.1 1002.1 0.0
25/02:00pm 12.9 4.2 6.0 63 3.3 W 41 61 22 33 1001.9 1001.9 0.0
25/01:42pm 12.8 5.7 6.4 65 3.0 W 33 52 18 28 1002.0 1002.0 0.0
25/01:30pm 12.7 3.6 6.1 64 3.1 W 43 59 23 32 1002.0 1002.0 0.0
25/01:03pm 13.1 5.6 6.5 64 3.2 W 35 54 19 29 1001.9 1001.9 0.0
25/01:00pm 13.1 5.6 6.5 64 3.2 W 35 52 19 28 1001.9 1001.9 0.0
25/12:37pm 12.7 3.9 5.6 62 3.3 W 41 59 22 32 1001.5 1001.5 0.0
25/12:30pm 12.7 3.4 6.1 64 3.1 W 44 59 24 32 1001.4 1001.4 0.0
25/12:00pm 12.9 4.7 6.5 65 3.1 W 39 59 21 32 1001.0 1001.0 0.0
25/11:57am 13.0 4.8 6.6 65 3.1 W 39 59 21 32 1001.0 1001.0 0.0
25/11:30am 12.5 3.2 6.1 65 3.0 W 44 59 24 32 1000.8 1000.8 0.0
25/11:19am 12.4 3.3 5.8 64 3.1 W 43 61 23 33 1000.5 1000.5 0.0
25/11:00am 12.0 2.2 5.4 64 3.1 W 46 61 25 33 1000.6 1000.6 0.0
25/10:38am 12.0 3.6 5.6 65 3.0 W 39 61 21 33 1000.5 1000.5 0.0
25/10:30am 12.1 3.7 5.7 65 3.0 W 39 56 21 30 1000.3 1000.3 0.0
25/10:05am 12.1 4.8 5.5 64 3.1 W 33 52 18 28 1000.4 1000.4 0.0
25/10:00am 12.2 4.6 6.0 66 2.9 W 35 52 19 28 1000.7 1000.7 0.0
25/09:30am 11.7 3.3 5.8 67 2.7 W 39 54 21 29 1000.7 1000.7 0.0
25/09:00am 11.2 2.4 5.5 68 2.6 W 41 52 22 28 1000.4 1000.4 6.6
25/08:30am 11.0 3.0 5.5 69 2.5 W 37 52 20 28 999.8 999.8 6.6
25/08:13am 10.8 2.6 4.9 67 2.7 W 37 56 20 30 999.7 999.7 6.6
25/08:00am 10.7 1.8 5.3 69 2.5 W 41 54 22 29 999.3 999.3 6.6
25/07:30am 10.4 3.2 5.8 73 2.1 W 33 54 18 29 999.1 999.1 6.6
25/07:13am 10.4 2.9 6.2 75 2.0 W 35 54 19 29 998.9 998.9 6.6
25/07:00am 10.2 2.3 6.2 76 1.9 W 37 54 20 29 998.6 998.6 6.6
25/06:30am 9.8 1.1 6.2 78 1.7 W 41 59 22 32 997.9 997.9 6.6
25/06:27am 9.9 1.6 6.3 78 1.7 W 39 59 21 32 997.9 997.9 6.6
25/06:00am 9.9 1.3 6.4 79 1.6 W 41 52 22 28 997.5 997.5 6.6
25/05:37am 9.8 1.6 6.7 81 1.5 W 39 57 21 31 996.9 996.9 6.6
25/05:30am 10.0 1.1 6.9 81 1.5 W 43 57 23 31 996.7 996.7 6.6
25/05:01am 9.9 2.2 7.2 83 1.3 W 37 61 20 33 996.0 996.0 6.6
25/05:00am 10.0 2.7 7.3 83 1.3 W 35 54 19 29 996.0 996.0 6.6
25/04:30am 9.9 1.9 7.5 85 1.1 W 39 59 21 32 995.7 995.7 6.6
25/04:00am 10.5 4.2 8.8 89 0.8 W 32 52 17 28 995.3 995.3 6.6
25/03:54am 10.4 3.8 8.7 89 0.8 W 33 52 18 28 995.2 995.2 6.6
25/03:30am 10.7 3.9 9.1 90 0.8 W 35 48 19 26 994.6 994.6 6.6
25/03:00am 11.0 5.2 9.6 91 0.7 W 30 52 16 28 994.2 994.2 6.6
25/02:54am 11.0 4.9 9.6 91 0.7 W 32 52 17 28 994.1 994.1 6.6
25/02:30am 11.0 5.2 9.6 91 0.7 W 30 44 16 24 993.8 993.8 6.6
25/02:00am 11.2 5.5 9.8 91 0.7 W 30 48 16 26 993.5 993.5 6.6
25/01:31am 11.3 4.7 9.9 91 0.7 WNW 35 56 19 30 993.2 993.2 6.6
25/01:30am 11.3 4.3 9.9 91 0.7 WNW 37 56 20 30 993.2 993.2 6.6
25/01:12am 11.3 3.9 9.9 91 0.7 WNW 39 57 21 31 992.8 992.8 6.6
25/01:00am 11.3 3.5 9.9 91 0.7 WNW 41 57 22 31 992.7 992.7 6.6
25/12:43am 11.3 3.2 9.9 91 0.7 WNW 43 61 23 33 992.5 992.5 6.6
25/12:30am 11.4 3.7 10.0 91 0.7 WNW 41 54 22 29 992.3 992.3 6.6
25/12:00am 11.5 3.4 10.2 92 0.7 WNW 43 54 23 29 992.2 992.2 6.6
 
Date/Time
EST
Temp
°C
App
Temp
°C
Dew
Point
°C
Rel
Hum
%
Delta-T
°C
Wind Press
QNH
hPa
Press
MSL
hPa
Rain since
9am
mm
Dir  Spd
km/h
Gust
km/h
Spd
kts
Gust
kts
24/11:30pm 11.4 5.3 10.3 93 0.6 WNW 33 43 18 23 992.3 992.3 6.6
24/11:00pm 10.9 4.8 9.8 93 0.6 WNW 32 44 17 24 992.6 992.6 6.6
24/10:33pm 10.3 2.7 8.9 91 0.7 WNW 39 56 21 30 992.9 992.9 5.2
24/10:30pm 10.4 2.8 9.0 91 0.7 WNW 39 56 21 30 993.0 993.0 5.0
24/10:05pm 11.6 1.0 9.9 89 0.9 NW 56 74 30 40 992.3 992.3 4.4
24/10:00pm 11.5 0.7 9.8 89 0.9 NW 57 76 31 41 992.3 992.3 4.4
24/09:54pm 11.5 1.6 9.9 90 0.8 NW 52 76 28 41 992.3 992.3 4.2
24/09:30pm 12.0 1.8 9.9 87 1.1 NW 54 65 29 35 992.7 992.7 3.0
24/09:00pm 12.3 2.9 10.0 86 1.2 NW 50 61 27 33 992.9 992.9 2.8
24/08:30pm 12.0 3.2 9.7 86 1.2 NW 46 63 25 34 993.1 993.1 2.8
24/08:14pm 11.8 3.4 9.7 87 1.1 NW 44 65 24 35 993.1 993.1 2.8
24/08:00pm 12.3 4.0 10.2 87 1.1 NW 44 54 24 29 993.0 993.0 2.8
24/07:30pm 12.0 3.7 9.9 87 1.1 NW 44 54 24 29 993.0 993.0 2.8
24/07:00pm 12.1 3.8 9.5 84 1.3 NW 43 57 23 31 993.1 993.1 2.8
24/06:30pm 12.1 3.7 9.8 86 1.2 NW 44 57 24 31 992.8 992.8 2.8
24/06:00pm 12.2 4.9 10.1 87 1.1 NW 39 52 21 28 992.9 992.9 2.8
24/05:30pm 12.1 5.5 10.0 87 1.1 WNW 35 48 19 26 992.7 992.7 2.8
24/05:00pm 11.5 5.2 9.8 89 0.9 WNW 33 46 18 25 992.9 992.9 2.8
24/04:30pm 10.9 3.7 9.2 89 0.8 WNW 37 50 20 27 992.8 992.8 2.8
24/04:00pm 11.2 2.8 8.9 86 1.2 WNW 43 57 23 31 993.0 993.0 1.8
24/03:30pm 11.6 2.2 8.6 82 1.5 WNW 48 63 26 34 992.8 992.8 1.4
24/03:09pm 11.9 2.2 9.1 83 1.4 WNW 50 76 27 41 992.6 992.6 1.4
24/03:00pm 12.5 3.7 9.5 82 1.5 WNW 46 65 25 35 992.8 992.8 1.4
24/02:30pm 12.9 3.7 9.5 80 1.7 WNW 48 61 26 33 992.4 992.4 1.4
24/02:00pm 13.1 4.8 9.5 79 1.9 WNW 43 57 23 31 992.2 992.2 1.4
24/01:30pm 13.2 4.4 9.6 79 1.8 WNW 46 61 25 33 992.3 992.3 1.4
24/01:00pm 12.7 4.2 9.3 80 1.7 WNW 44 63 24 34 992.2 992.2 1.4
24/12:46pm 12.5 4.0 9.3 81 1.6 NW 44 65 24 35 992.2 992.2 1.4
24/12:30pm 12.3 3.9 9.5 83 1.4 NW 44 57 24 31 992.2 992.2 1.4
24/12:00pm 11.3 4.2 9.4 88 1.0 NW 37 50 20 27 992.2 992.2 1.4
24/11:30am 10.3 2.5 8.4 88 0.9 NW 39 59 21 32 992.4 992.4 1.4
24/11:00am 10.1 1.4 7.9 86 1.1 WNW 43 59 23 32 992.9 992.9 1.0
24/10:33am 12.6 4.7 9.2 80 1.7 NW 41 70 22 38 992.5 992.5 0.0
24/10:30am 13.0 5.9 9.6 80 1.7 NW 37 50 20 27 992.7 992.7 0.0
24/10:00am 14.3 8.2 10.3 77 2.1 NW 33 46 18 25 992.6 992.6 0.0
24/09:30am 14.1 6.9 10.5 79 1.9 WNW 39 52 21 28 992.5 992.5 0.0
24/09:00am 13.9 7.5 10.7 81 1.7 WNW 35 48 19 26 992.6 992.6 0.0
24/08:30am 13.3 6.5 10.5 83 1.5 WNW 37 50 20 27 992.7 992.7 0.0
24/08:00am 12.8 5.9 10.2 84 1.4 WNW 37 50 20 27 992.9 992.9 0.0
24/07:30am 12.8 6.3 10.5 86 1.2 WNW 35 48 19 26 993.1 993.1 0.0
24/07:00am 12.7 6.6 10.6 87 1.1 NW 33 46 18 25 993.1 993.1 0.0
24/06:30am 12.4 6.8 10.3 87 1.1 NW 30 43 16 23 993.2 993.2 0.0
24/06:00am 12.3 5.8 10.2 87 1.1 WNW 35 44 19 24 993.1 993.1 0.0
24/05:30am 12.2 5.2 10.1 87 1.1 WNW 37 46 20 25 992.7 992.7 0.0
24/05:00am 12.2 5.6 9.9 86 1.2 WNW 35 46 19 25 992.7 992.7 0.0
24/04:30am 12.3 5.3 9.9 85 1.2 WNW 37 52 20 28 992.6 992.6 0.0
24/04:00am 12.6 6.5 10.3 86 1.2 WNW 33 43 18 23 992.5 992.5 0.0
24/03:30am 12.5 6.9 10.0 85 1.3 WNW 30 41 16 22 992.3 992.3 0.0
24/03:00am 12.4 6.4 10.0 85 1.2 WNW 32 46 17 25 992.2 992.2 0.0
24/02:30am 12.5 5.9 10.0 85 1.3 WNW 35 46 19 25 992.2 992.2 0.0
24/02:00am 12.6 6.0 10.1 85 1.3 WNW 35 46 19 25 992.2 992.2 0.0
24/01:30am 12.6 5.7 10.3 86 1.2 WNW 37 52 20 28 992.4 992.4 0.0
24/01:00am 12.8 6.0 10.7 87 1.1 WNW 37 56 20 30 992.4 992.4 0.0
24/12:30am 12.8 4.7 10.7 87 1.1 WNW 44 57 24 31 992.6 992.6 0.0
24/12:00am 12.7 5.5 10.6 87 1.1 WNW 39 59 21 32 992.5 992.5 0.0
 
Date/Time
EST
Temp
°C
App
Temp
°C
Dew
Point
°C
Rel
Hum
%
Delta-T
°C
Wind Press
QNH
hPa
Press
MSL
hPa
Rain since
9am
mm
Dir  Spd
km/h
Gust
km/h
Spd
kts
Gust
kts
23/11:58pm 12.7 5.5 10.6 87 1.1 WNW 39 59 21 32 992.5 992.5 0.0
23/11:30pm 12.5 5.6 10.2 86 1.2 WNW 37 46 20 25 992.6 992.6 0.0
23/11:00pm 12.3 6.1 9.9 85 1.2 WNW 33 41 18 22 992.7 992.7 0.0
23/10:30pm 12.4 7.4 9.6 83 1.4 WNW 26 35 14 19 992.3 992.3 0.0
23/10:00pm 12.5 8.1 9.1 80 1.7 WNW 22 30 12 16 992.2 992.2 0.0
23/09:30pm 13.1 7.6 9.2 77 2.0 W 28 35 15 19 992.2 992.2 0.0
23/09:00pm 13.0 7.2 9.6 80 1.8 W 30 43 16 23 992.1 992.1 0.0
23/08:30pm 12.8 6.3 10.2 84 1.3 W 35 48 19 26 992.6 992.6 0.0
23/08:08pm 13.5 7.2 10.9 84 1.4 WSW 35 56 19 30 990.9 990.9 0.0
23/08:00pm 13.9 6.1 11.2 84 1.4 W 43 57 23 31 990.9 990.9 0.0
23/07:41pm 14.1 10.9 12.0 87 1.1 WNW 20 61 11 33 989.8 989.8 0.0
23/07:39pm 13.8 11.9 11.7 87 1.1 WNW 13 43 7 23 989.9 989.9 0.0
23/07:30pm 13.9 13.2 12.1 89 1.0 S 7 11 4 6 988.8 988.8 0.0
23/07:00pm 13.1 11.0 11.3 89 1.0 SE 13 17 7 9 987.9 987.9 0.0
23/06:30pm 13.0 11.3 11.2 89 0.9 SE 11 20 6 11 988.4 988.4 0.0
23/06:00pm 13.0 10.2 11.2 89 1.0 SE 17 20 9 11 987.8 987.8 0.0
23/05:30pm 13.2 10.0 11.3 88 1.0 SE 19 22 10 12 988.1 988.1 0.0
23/05:00pm 13.6 11.2 11.3 86 1.2 SE 15 22 8 12 988.5 988.5 0.0
23/04:30pm 13.6 10.8 11.3 86 1.2 SE 17 20 9 11 988.5 988.5 0.0
23/04:00pm 14.5 13.0 11.8 84 1.5 SE 11 15 6 8 989.2 989.2 0.0
23/03:30pm 14.5 12.2 11.8 84 1.5 ENE 15 19 8 10 989.3 989.3 0.0
23/03:00pm 14.7 12.0 11.8 83 1.6 ENE 17 19 9 10 990.0 990.0 0.0
23/02:30pm 14.7 13.1 11.7 82 1.6 ENE 11 15 6 8 990.8 990.8 0.0
23/02:00pm 16.4 16.2 13.1 81 1.9 E 6 7 3 4 991.7 991.7 0.0
23/01:30pm 15.6 15.8 12.9 84 1.5 ENE 4 7 2 4 992.7 992.7 0.0
23/01:00pm 14.6 14.0 11.7 83 1.6 ENE 6 9 3 5 993.9 993.9 0.0
23/12:30pm 15.5 15.1 13.0 85 1.4 ENE 7 9 4 5 994.6 994.6 0.0
23/12:00pm 15.1 14.2 12.6 85 1.4 ENE 9 13 5 7 995.0 995.0 0.0
23/11:30am 17.1 17.3 14.7 86 1.4 E 7 9 4 5 995.5 995.5 0.0
23/11:00am 15.8 15.1 14.2 90 0.9 ESE 11 13 6 7 995.9 995.9 0.0
23/10:30am 14.9 14.4 13.9 94 0.6 SSE 9 13 5 7 996.5 996.5 0.0
23/10:00am 14.2 12.8 13.4 95 0.4 S 13 19 7 10 998.0 998.0 0.0
23/09:30am 13.2 10.7 12.4 95 0.4 S 17 22 9 12 999.0 999.0 0.0
23/09:00am 13.8 12.7 13.0 95 0.4 SSE 11 15 6 8 998.8 998.8 0.0
23/08:30am 13.3 12.4 12.5 95 0.4 SE 9 11 5 6 998.6 998.6 0.0
23/08:00am 13.4 12.1 12.6 95 0.4 E 11 15 6 8 998.2 998.2 0.0
23/07:30am 12.9 11.8 12.1 95 0.4 ESE 9 15 5 8 998.8 998.8 0.0
23/07:00am 12.5 9.4 11.7 95 0.4 ENE 19 24 10 13 998.8 998.8 0.0
23/06:30am 12.0 8.6 11.2 95 0.4 ESE 20 24 11 13 999.9 999.9 0.0
23/06:00am 11.4 9.5 10.5 94 0.5 ESE 11 15 6 8 1000.4 1000.4 0.0
23/05:30am 11.4 8.7 10.5 94 0.5 ESE 15 19 8 10 1000.5 1000.5 0.0
23/05:00am 11.1 8.4 10.2 94 0.5 SE 15 19 8 10 1000.8 1000.8 0.0
23/04:30am 11.0 8.2 9.9 93 0.6 ESE 15 17 8 9 1001.3 1001.3 0.0
23/04:00am 10.5 7.9 9.4 93 0.6 SE 13 15 7 8 1002.3 1002.3 0.0
23/03:30am 11.0 8.5 9.8 92 0.6 SE 13 17 7 9 1002.6 1002.6 0.0
23/03:00am 11.0 8.5 9.8 92 0.6 E 13 17 7 9 1003.1 1003.1 0.0
23/02:30am 10.4 7.7 9.0 91 0.7 SE 13 15 7 8 1003.8 1003.8 0.0
23/02:00am 10.6 8.0 9.2 91 0.7 SSE 13 17 7 9 1004.7 1004.7 0.0
23/01:30am 10.4 8.5 9.0 91 0.7 SSE 9 13 5 7 1005.2 1005.2 0.0
23/01:00am 10.8 9.0 9.4 91 0.7 SSE 9 11 5 6 1005.8 1005.8 0.0
23/12:30am 10.6 8.4 9.4 92 0.6 SSE 11 15 6 8 1005.7 1005.7 0.0
23/12:00am 10.6 8.8 9.4 92 0.6 SSE 9 13 5 7 1005.8 1005.8 0.0
 
Date/Time
EST
Temp
°C
App
Temp
°C
Dew
Point
°C
Rel
Hum
%
Delta-T
°C
Wind Press
QNH
hPa
Press
MSL
hPa
Rain since
9am
mm
Dir  Spd
km/h
Gust
km/h
Spd
kts
Gust
kts
22/11:30pm 10.8 9.6 9.6 92 0.6 ESE 6 9 3 5 1006.0 1006.0 0.0
22/11:00pm 10.5 9.2 9.1 91 0.7 SSW 6 7 3 4 1007.8 1007.8 0.0
22/10:30pm 10.7 9.4 9.3 91 0.7 S 6 9 3 5 1006.9 1006.9 0.0
22/10:00pm 11.1 9.7 9.5 90 0.8 SSW 7 9 4 5 1007.7 1007.7 0.0
22/09:30pm 10.8 10.3 9.2 90 0.8 NNE 2 4 1 2 1008.0 1008.0 0.0
22/09:00pm 11.2 9.8 9.6 90 0.8 NNE 7 11 4 6 1007.3 1007.3 0.0
22/08:30pm 11.1 10.2 9.4 89 0.9 NW 4 6 2 3 1007.4 1007.4 0.0
22/08:00pm 10.8 9.8 8.9 88 0.9 NW 4 6 2 3 1007.9 1007.9 0.0
22/07:30pm 11.1 9.6 9.2 88 0.9 WNW 7 9 4 5 1007.8 1007.8 0.0
22/07:00pm 11.2 9.7 9.1 87 1.0 WNW 7 11 4 6 1007.6 1007.6 0.0
22/06:30pm 11.1 9.7 8.8 86 1.1 WNW 6 7 3 4 1007.3 1007.3 0.0

Other Formats:

Comma delimited format used in spreadsheet applications
http://www.bom.gov.au/fwo/IDT60801/IDT60801.95985.axf

JavaScript Object Notation format (JSON) in row-major order
http://www.bom.gov.au/fwo/IDT60801/IDT60801.95985.json